sensor_id;sensor_type;location;lat;lon;timestamp;temperature;humidity
19033;DHT22;9649;51.042;13.804;2023-04-01T00:03:04;11.30;99.90
19033;DHT22;9649;51.042;13.804;2023-04-01T00:08:07;11.10;99.90
19033;DHT22;9649;51.042;13.804;2023-04-01T00:13:12;10.90;1.00
19033;DHT22;9649;51.042;13.804;2023-04-01T00:18:16;10.70;1.00
19033;DHT22;9649;51.042;13.804;2023-04-01T00:23:20;10.60;1.00
19033;DHT22;9649;51.042;13.804;2023-04-01T00:28:23;10.50;1.00
19033;DHT22;9649;51.042;13.804;2023-04-01T00:33:27;10.50;1.00
19033;DHT22;9649;51.042;13.804;2023-04-01T00:38:29;10.50;1.00
19033;DHT22;9649;51.042;13.804;2023-04-01T00:43:33;10.50;1.00
19033;DHT22;9649;51.042;13.804;2023-04-01T00:48:40;10.60;1.00
19033;DHT22;9649;51.042;13.804;2023-04-01T00:53:47;10.60;1.00
19033;DHT22;9649;51.042;13.804;2023-04-01T00:58:54;10.70;1.00
19033;DHT22;9649;51.042;13.804;2023-04-01T01:03:58;10.60;1.00
19033;DHT22;9649;51.042;13.804;2023-04-01T01:09:10;10.60;1.00
19033;DHT22;9649;51.042;13.804;2023-04-01T01:14:28;10.70;1.00
19033;DHT22;9649;51.042;13.804;2023-04-01T01:19:49;10.60;1.00
19033;DHT22;9649;51.042;13.804;2023-04-01T01:25:10;10.70;1.00
19033;DHT22;9649;51.042;13.804;2023-04-01T01:30:30;10.80;99.90
19033;DHT22;9649;51.042;13.804;2023-04-01T01:35:40;10.90;1.00
19033;DHT22;9649;51.042;13.804;2023-04-01T01:40:46;10.90;1.00
19033;DHT22;9649;51.042;13.804;2023-04-01T01:45:55;10.90;1.00
19033;DHT22;9649;51.042;13.804;2023-04-01T01:51:01;11.00;1.00
19033;DHT22;9649;51.042;13.804;2023-04-01T01:56:05;10.90;1.00
19033;DHT22;9649;51.042;13.804;2023-04-01T02:01:13;11.00;99.90
19033;DHT22;9649;51.042;13.804;2023-04-01T02:06:20;11.00;99.90
19033;DHT22;9649;51.042;13.804;2023-04-01T02:11:27;10.90;99.90
19033;DHT22;9649;51.042;13.804;2023-04-01T02:16:34;11.00;99.90
19033;DHT22;9649;51.042;13.804;2023-04-01T02:21:39;11.00;90.30
19033;DHT22;9649;51.042;13.804;2023-04-01T02:26:44;10.90;99.90
19033;DHT22;9649;51.042;13.804;2023-04-01T02:31:47;10.90;99.90
19033;DHT22;9649;51.042;13.804;2023-04-01T02:36:53;11.00;1.00
19033;DHT22;9649;51.042;13.804;2023-04-01T02:41:57;11.00;1.00
19033;DHT22;9649;51.042;13.804;2023-04-01T02:47:00;11.00;99.90
19033;DHT22;9649;51.042;13.804;2023-04-01T02:52:04;11.00;99.90
19033;DHT22;9649;51.042;13.804;2023-04-01T02:57:07;11.00;99.90
19033;DHT22;9649;51.042;13.804;2023-04-01T03:02:10;11.00;99.90
19033;DHT22;9649;51.042;13.804;2023-04-01T03:07:14;10.90;99.90
19033;DHT22;9649;51.042;13.804;2023-04-01T03:12:16;10.90;1.00
19033;DHT22;9649;51.042;13.804;2023-04-01T03:17:19;10.90;99.90
19033;DHT22;9649;51.042;13.804;2023-04-01T03:22:23;10.90;99.90
19033;DHT22;9649;51.042;13.804;2023-04-01T03:27:26;10.90;72.60
19033;DHT22;9649;51.042;13.804;2023-04-01T03:32:29;11.00;1.00
19033;DHT22;9649;51.042;13.804;2023-04-01T03:37:33;11.00;1.00
19033;DHT22;9649;51.042;13.804;2023-04-01T03:42:36;10.90;1.00
19033;DHT22;9649;51.042;13.804;2023-04-01T03:47:39;10.90;1.00
19033;DHT22;9649;51.042;13.804;2023-04-01T03:52:43;11.00;99.90
19033;DHT22;9649;51.042;13.804;2023-04-01T03:57:46;10.90;1.00
19033;DHT22;9649;51.042;13.804;2023-04-01T04:02:48;11.00;4.70
19033;DHT22;9649;51.042;13.804;2023-04-01T04:07:53;10.90;99.90
19033;DHT22;9649;51.042;13.804;2023-04-01T04:12:57;10.90;1.00
19033;DHT22;9649;51.042;13.804;2023-04-01T04:17:59;10.90;93.20
19033;DHT22;9649;51.042;13.804;2023-04-01T04:23:03;10.90;1.00
19033;DHT22;9649;51.042;13.804;2023-04-01T04:28:06;11.00;99.90
19033;DHT22;9649;51.042;13.804;2023-04-01T04:33:09;11.00;99.90
19033;DHT22;9649;51.042;13.804;2023-04-01T04:38:13;11.00;99.90
19033;DHT22;9649;51.042;13.804;2023-04-01T04:43:17;11.00;1.00
19033;DHT22;9649;51.042;13.804;2023-04-01T04:48:20;11.00;1.00
19033;DHT22;9649;51.042;13.804;2023-04-01T04:53:24;11.10;99.90
19033;DHT22;9649;51.042;13.804;2023-04-01T04:58:27;11.10;1.00
19033;DHT22;9649;51.042;13.804;2023-04-01T05:03:30;11.10;99.90
19033;DHT22;9649;51.042;13.804;2023-04-01T05:08:35;11.10;99.90
19033;DHT22;9649;51.042;13.804;2023-04-01T05:13:38;11.10;99.90
19033;DHT22;9649;51.042;13.804;2023-04-01T05:18:42;11.10;94.60
19033;DHT22;9649;51.042;13.804;2023-04-01T05:23:46;11.20;99.90
19033;DHT22;9649;51.042;13.804;2023-04-01T05:28:48;11.20;99.90
19033;DHT22;9649;51.042;13.804;2023-04-01T05:33:51;11.30;1.00
19033;DHT22;9649;51.042;13.804;2023-04-01T05:38:57;11.30;99.90
19033;DHT22;9649;51.042;13.804;2023-04-01T05:43:59;11.30;99.90
19033;DHT22;9649;51.042;13.804;2023-04-01T05:49:02;11.40;99.90
19033;DHT22;9649;51.042;13.804;2023-04-01T05:54:06;11.40;1.00
19033;DHT22;9649;51.042;13.804;2023-04-01T05:59:10;11.50;1.00
19033;DHT22;9649;51.042;13.804;2023-04-01T06:04:14;11.60;1.00
19033;DHT22;9649;51.042;13.804;2023-04-01T06:09:21;11.50;1.00
19033;DHT22;9649;51.042;13.804;2023-04-01T06:14:34;11.50;1.00
19033;DHT22;9649;51.042;13.804;2023-04-01T06:19:50;11.40;1.00
19033;DHT22;9649;51.042;13.804;2023-04-01T06:25:04;11.40;99.90
19033;DHT22;9649;51.042;13.804;2023-04-01T06:30:24;11.40;99.90
19033;DHT22;9649;51.042;13.804;2023-04-01T06:35:48;11.60;1.00
19033;DHT22;9649;51.042;13.804;2023-04-01T06:41:25;11.90;70.60
19033;DHT22;9649;51.042;13.804;2023-04-01T06:46:36;12.10;1.00
19033;DHT22;9649;51.042;13.804;2023-04-01T06:51:47;12.30;99.90
19033;DHT22;9649;51.042;13.804;2023-04-01T06:56:59;12.50;1.00
19033;DHT22;9649;51.042;13.804;2023-04-01T07:02:10;12.50;1.00
19033;DHT22;9649;51.042;13.804;2023-04-01T07:07:21;12.70;99.90
19033;DHT22;9649;51.042;13.804;2023-04-01T07:12:36;12.70;99.90
19033;DHT22;9649;51.042;13.804;2023-04-01T07:17:41;12.80;99.90
19033;DHT22;9649;51.042;13.804;2023-04-01T07:22:47;12.90;91.20
19033;DHT22;9649;51.042;13.804;2023-04-01T07:27:53;13.10;1.00
19033;DHT22;9649;51.042;13.804;2023-04-01T07:33:04;12.90;1.00
19033;DHT22;9649;51.042;13.804;2023-04-01T07:38:19;13.00;1.00
19033;DHT22;9649;51.042;13.804;2023-04-01T07:43:50;13.20;1.00
19033;DHT22;9649;51.042;13.804;2023-04-01T07:48:58;13.30;1.00
19033;DHT22;9649;51.042;13.804;2023-04-01T07:54:11;13.30;1.00
19033;DHT22;9649;51.042;13.804;2023-04-01T07:59:24;13.00;1.00
19033;DHT22;9649;51.042;13.804;2023-04-01T08:04:45;13.20;1.00
19033;DHT22;9649;51.042;13.804;2023-04-01T08:09:59;13.50;1.00
19033;DHT22;9649;51.042;13.804;2023-04-01T08:15:16;13.70;99.90
19033;DHT22;9649;51.042;13.804;2023-04-01T08:20:28;13.90;99.90
19033;DHT22;9649;51.042;13.804;2023-04-01T08:25:38;14.60;1.00
19033;DHT22;9649;51.042;13.804;2023-04-01T08:30:46;14.90;1.00
19033;DHT22;9649;51.042;13.804;2023-04-01T08:35:53;15.40;1.00
19033;DHT22;9649;51.042;13.804;2023-04-01T08:41:00;15.20;1.00
19033;DHT22;9649;51.042;13.804;2023-04-01T08:46:20;14.90;99.90
19033;DHT22;9649;51.042;13.804;2023-04-01T08:52:06;14.50;1.00
19033;DHT22;9649;51.042;13.804;2023-04-01T08:57:20;14.90;1.00
19033;DHT22;9649;51.042;13.804;2023-04-01T09:08:28;14.40;1.00
19033;DHT22;9649;51.042;13.804;2023-04-01T09:19:17;14.70;1.00
19033;DHT22;9649;51.042;13.804;2023-04-01T09:24:55;14.20;1.00
19033;DHT22;9649;51.042;13.804;2023-04-01T09:30:32;14.50;1.00
19033;DHT22;9649;51.042;13.804;2023-04-01T09:35:39;14.30;1.00
19033;DHT22;9649;51.042;13.804;2023-04-01T09:40:54;14.20;1.00
19033;DHT22;9649;51.042;13.804;2023-04-01T09:46:18;14.50;1.00
19033;DHT22;9649;51.042;13.804;2023-04-01T09:51:31;14.50;1.00
19033;DHT22;9649;51.042;13.804;2023-04-01T10:08:36;14.90;99.90
19033;DHT22;9649;51.042;13.804;2023-04-01T10:20:01;15.00;99.90
19033;DHT22;9649;51.042;13.804;2023-04-01T10:25:44;14.80;99.90
19033;DHT22;9649;51.042;13.804;2023-04-01T10:31:20;14.80;1.00
19033;DHT22;9649;51.042;13.804;2023-04-01T10:36:47;14.70;1.00
19033;DHT22;9649;51.042;13.804;2023-04-01T10:42:22;14.70;1.00
19033;DHT22;9649;51.042;13.804;2023-04-01T10:47:48;14.40;1.00
19033;DHT22;9649;51.042;13.804;2023-04-01T11:04:35;15.20;99.90
19033;DHT22;9649;51.042;13.804;2023-04-01T11:10:12;16.10;99.90
19033;DHT22;9649;51.042;13.804;2023-04-01T11:16:00;16.80;1.00
19033;DHT22;9649;51.042;13.804;2023-04-01T11:21:51;18.20;1.00
19033;DHT22;9649;51.042;13.804;2023-04-01T11:27:08;20.90;1.00
19033;DHT22;9649;51.042;13.804;2023-04-01T11:32:24;21.70;1.00
19033;DHT22;9649;51.042;13.804;2023-04-01T11:37:37;20.40;1.00
19033;DHT22;9649;51.042;13.804;2023-04-01T11:42:46;19.00;1.00
19033;DHT22;9649;51.042;13.804;2023-04-01T11:47:58;22.00;1.00
19033;DHT22;9649;51.042;13.804;2023-04-01T11:53:22;21.90;1.00
19033;DHT22;9649;51.042;13.804;2023-04-01T11:58:36;19.00;1.00
19033;DHT22;9649;51.042;13.804;2023-04-01T12:04:22;18.70;99.90
19033;DHT22;9649;51.042;13.804;2023-04-01T12:09:36;19.50;99.90
19033;DHT22;9649;51.042;13.804;2023-04-01T12:14:54;22.30;1.00
19033;DHT22;9649;51.042;13.804;2023-04-01T12:20:09;26.20;1.00
19033;DHT22;9649;51.042;13.804;2023-04-01T12:25:35;26.30;1.00
19033;DHT22;9649;51.042;13.804;2023-04-01T12:30:50;27.60;99.90
19033;DHT22;9649;51.042;13.804;2023-04-01T12:36:08;26.40;99.90
19033;DHT22;9649;51.042;13.804;2023-04-01T12:41:20;21.60;99.90
19033;DHT22;9649;51.042;13.804;2023-04-01T12:46:28;18.60;1.00
19033;DHT22;9649;51.042;13.804;2023-04-01T12:51:53;17.00;1.00
19033;DHT22;9649;51.042;13.804;2023-04-01T12:57:15;16.30;1.00
19033;DHT22;9649;51.042;13.804;2023-04-01T13:02:32;16.20;1.00
19033;DHT22;9649;51.042;13.804;2023-04-01T13:07:59;16.40;1.00
19033;DHT22;9649;51.042;13.804;2023-04-01T13:13:21;17.00;99.90
19033;DHT22;9649;51.042;13.804;2023-04-01T13:18:32;18.40;99.90
19033;DHT22;9649;51.042;13.804;2023-04-01T13:23:56;22.80;1.00
19033;DHT22;9649;51.042;13.804;2023-04-01T13:29:09;26.20;1.00
19033;DHT22;9649;51.042;13.804;2023-04-01T13:34:22;24.10;1.00
19033;DHT22;9649;51.042;13.804;2023-04-01T13:39:39;22.30;1.00
19033;DHT22;9649;51.042;13.804;2023-04-01T13:44:49;20.70;1.00
19033;DHT22;9649;51.042;13.804;2023-04-01T13:50:04;21.50;1.00
19033;DHT22;9649;51.042;13.804;2023-04-01T13:55:28;22.40;1.00
19033;DHT22;9649;51.042;13.804;2023-04-01T14:00:44;20.40;1.00
19033;DHT22;9649;51.042;13.804;2023-04-01T14:05:56;19.10;1.00
19033;DHT22;9649;51.042;13.804;2023-04-01T14:11:13;19.60;1.00
19033;DHT22;9649;51.042;13.804;2023-04-01T14:16:52;20.20;1.00
19033;DHT22;9649;51.042;13.804;2023-04-01T14:22:05;18.80;1.00
19033;DHT22;9649;51.042;13.804;2023-04-01T14:27:22;17.10;1.00
19033;DHT22;9649;51.042;13.804;2023-04-01T14:32:34;16.50;25.00
19033;DHT22;9649;51.042;13.804;2023-04-01T14:37:55;16.60;99.90
19033;DHT22;9649;51.042;13.804;2023-04-01T14:43:14;18.50;1.00
19033;DHT22;9649;51.042;13.804;2023-04-01T14:48:25;20.30;1.00
19033;DHT22;9649;51.042;13.804;2023-04-01T14:53:35;20.50;1.00
19033;DHT22;9649;51.042;13.804;2023-04-01T14:58:43;18.90;1.00
19033;DHT22;9649;51.042;13.804;2023-04-01T15:03:55;17.60;1.00
19033;DHT22;9649;51.042;13.804;2023-04-01T15:09:06;17.20;1.00
19033;DHT22;9649;51.042;13.804;2023-04-01T15:19:57;17.80;1.00
19033;DHT22;9649;51.042;13.804;2023-04-01T15:30:46;17.70;1.00
19033;DHT22;9649;51.042;13.804;2023-04-01T15:35:57;17.40;1.00
19033;DHT22;9649;51.042;13.804;2023-04-01T15:41:13;17.00;1.00
19033;DHT22;9649;51.042;13.804;2023-04-01T15:46:31;16.60;1.00
19033;DHT22;9649;51.042;13.804;2023-04-01T15:51:48;16.40;1.00
19033;DHT22;9649;51.042;13.804;2023-04-01T15:57:12;16.40;1.00
19033;DHT22;9649;51.042;13.804;2023-04-01T16:02:21;16.30;28.40
19033;DHT22;9649;51.042;13.804;2023-04-01T16:07:46;16.00;99.90
19033;DHT22;9649;51.042;13.804;2023-04-01T16:13:00;15.50;1.00
19033;DHT22;9649;51.042;13.804;2023-04-01T16:18:22;15.10;1.00
19033;DHT22;9649;51.042;13.804;2023-04-01T16:23:36;14.90;1.00
19033;DHT22;9649;51.042;13.804;2023-04-01T16:28:44;14.60;1.00
19033;DHT22;9649;51.042;13.804;2023-04-01T16:33:56;14.30;1.00
19033;DHT22;9649;51.042;13.804;2023-04-01T16:39:19;14.10;1.00
19033;DHT22;9649;51.042;13.804;2023-04-01T16:44:25;14.00;1.00
19033;DHT22;9649;51.042;13.804;2023-04-01T16:49:32;14.00;55.70
19033;DHT22;9649;51.042;13.804;2023-04-01T16:54:45;13.80;99.90
19033;DHT22;9649;51.042;13.804;2023-04-01T16:59:55;13.60;1.00
19033;DHT22;9649;51.042;13.804;2023-04-01T17:05:03;13.30;99.90
19033;DHT22;9649;51.042;13.804;2023-04-01T17:10:18;13.20;1.00
19033;DHT22;9649;51.042;13.804;2023-04-01T17:15:32;13.00;1.00
19033;DHT22;9649;51.042;13.804;2023-04-01T17:20:42;13.00;1.00
19033;DHT22;9649;51.042;13.804;2023-04-01T17:31:41;12.70;5.20
19033;DHT22;9649;51.042;13.804;2023-04-01T17:37:00;12.60;1.00
19033;DHT22;9649;51.042;13.804;2023-04-01T17:42:09;12.50;1.00
19033;DHT22;9649;51.042;13.804;2023-04-01T17:47:29;12.40;18.50
19033;DHT22;9649;51.042;13.804;2023-04-01T17:52:38;12.20;99.90
19033;DHT22;9649;51.042;13.804;2023-04-01T17:57:48;12.20;1.00
19033;DHT22;9649;51.042;13.804;2023-04-01T18:03:03;12.10;99.90
19033;DHT22;9649;51.042;13.804;2023-04-01T18:08:16;12.10;1.00
19033;DHT22;9649;51.042;13.804;2023-04-01T18:13:37;12.20;1.00
19033;DHT22;9649;51.042;13.804;2023-04-01T18:18:53;12.20;99.90
19033;DHT22;9649;51.042;13.804;2023-04-01T18:24:03;12.10;1.00
19033;DHT22;9649;51.042;13.804;2023-04-01T18:29:18;12.00;1.00
19033;DHT22;9649;51.042;13.804;2023-04-01T18:34:39;12.10;90.80
19033;DHT22;9649;51.042;13.804;2023-04-01T18:39:46;12.00;59.20
19033;DHT22;9649;51.042;13.804;2023-04-01T18:44:57;11.90;99.90
19033;DHT22;9649;51.042;13.804;2023-04-01T19:08:59;11.50;1.00
19033;DHT22;9649;51.042;13.804;2023-04-01T19:14:56;11.60;1.00
19033;DHT22;9649;51.042;13.804;2023-04-01T19:44:32;11.30;4.20
19033;DHT22;9649;51.042;13.804;2023-04-01T19:49:59;11.10;99.90
19033;DHT22;9649;51.042;13.804;2023-04-01T20:14:56;10.70;99.90
19033;DHT22;9649;51.042;13.804;2023-04-01T20:21:03;10.80;99.90
19033;DHT22;9649;51.042;13.804;2023-04-01T20:26:11;10.80;99.90
19033;DHT22;9649;51.042;13.804;2023-04-01T20:31:28;10.90;99.90
19033;DHT22;9649;51.042;13.804;2023-04-01T20:36:38;11.00;99.90
19033;DHT22;9649;51.042;13.804;2023-04-01T20:41:54;11.00;99.90
19033;DHT22;9649;51.042;13.804;2023-04-01T20:47:06;11.20;1.00
19033;DHT22;9649;51.042;13.804;2023-04-01T20:52:32;11.10;22.80
19033;DHT22;9649;51.042;13.804;2023-04-01T20:57:44;11.00;99.90
19033;DHT22;9649;51.042;13.804;2023-04-01T21:03:10;11.00;99.90
19033;DHT22;9649;51.042;13.804;2023-04-01T21:08:23;11.00;99.90
19033;DHT22;9649;51.042;13.804;2023-04-01T21:13:36;11.00;99.90
19033;DHT22;9649;51.042;13.804;2023-04-01T21:19:02;11.00;99.90
19033;DHT22;9649;51.042;13.804;2023-04-01T21:24:31;11.00;99.90
19033;DHT22;9649;51.042;13.804;2023-04-01T21:29:49;10.90;99.90
19033;DHT22;9649;51.042;13.804;2023-04-01T21:35:00;11.00;99.90
19033;DHT22;9649;51.042;13.804;2023-04-01T21:40:39;11.10;99.90
19033;DHT22;9649;51.042;13.804;2023-04-01T21:45:58;11.10;99.90
19033;DHT22;9649;51.042;13.804;2023-04-01T21:51:29;11.10;99.90
19033;DHT22;9649;51.042;13.804;2023-04-01T21:56:57;11.10;99.90
19033;DHT22;9649;51.042;13.804;2023-04-01T22:02:20;11.20;99.90
19033;DHT22;9649;51.042;13.804;2023-04-01T22:07:35;11.30;99.90
19033;DHT22;9649;51.042;13.804;2023-04-01T22:12:45;11.30;99.90
19033;DHT22;9649;51.042;13.804;2023-04-01T22:17:54;11.10;99.90
19033;DHT22;9649;51.042;13.804;2023-04-01T22:23:14;11.10;99.90
19033;DHT22;9649;51.042;13.804;2023-04-01T22:28:24;10.90;99.90
19033;DHT22;9649;51.042;13.804;2023-04-01T22:33:32;10.70;99.90
19033;DHT22;9649;51.042;13.804;2023-04-01T22:38:57;10.50;99.90
19033;DHT22;9649;51.042;13.804;2023-04-01T22:44:15;10.50;99.90
19033;DHT22;9649;51.042;13.804;2023-04-01T22:49:24;10.50;99.90
19033;DHT22;9649;51.042;13.804;2023-04-01T22:54:34;10.30;99.90
19033;DHT22;9649;51.042;13.804;2023-04-01T22:59:44;10.10;99.90
19033;DHT22;9649;51.042;13.804;2023-04-01T23:04:53;10.00;99.90
19033;DHT22;9649;51.042;13.804;2023-04-01T23:10:01;9.90;99.90
19033;DHT22;9649;51.042;13.804;2023-04-01T23:15:12;9.80;99.90
19033;DHT22;9649;51.042;13.804;2023-04-01T23:20:32;9.80;99.90
19033;DHT22;9649;51.042;13.804;2023-04-01T23:25:46;9.70;99.90
19033;DHT22;9649;51.042;13.804;2023-04-01T23:30:51;9.70;99.90
19033;DHT22;9649;51.042;13.804;2023-04-01T23:35:56;9.80;99.90
19033;DHT22;9649;51.042;13.804;2023-04-01T23:41:09;9.70;99.90
19033;DHT22;9649;51.042;13.804;2023-04-01T23:46:19;9.70;99.90
19033;DHT22;9649;51.042;13.804;2023-04-01T23:51:27;9.60;99.90
19033;DHT22;9649;51.042;13.804;2023-04-01T23:56:38;9.50;99.90
